createdAt,value
2018-01-10T00:01:57.061Z,10.50
2018-01-10T00:04:25.320Z,11.20
2018-01-10T00:06:54.360Z,16.07
2018-01-10T00:09:22.617Z,11.63
2018-01-10T00:11:51.659Z,11.40
2018-01-10T00:14:19.912Z,9.83
2018-01-10T00:16:48.960Z,12.43
2018-01-10T00:19:17.494Z,10.90
2018-01-10T00:21:45.837Z,9.40
2018-01-10T00:24:14.167Z,10.03
2018-01-10T00:26:42.432Z,10.73
2018-01-10T00:29:10.696Z,13.30
2018-01-10T00:31:38.927Z,8.13
2018-01-10T00:34:07.204Z,12.13
2018-01-10T00:36:35.469Z,10.90
2018-01-10T00:39:03.727Z,12.30
2018-01-10T00:41:32.748Z,12.00
2018-01-10T00:44:01.023Z,9.10
2018-01-10T00:46:30.050Z,10.20
2018-01-10T00:48:58.324Z,10.13
2018-01-10T00:51:26.583Z,10.03
2018-01-10T00:53:54.864Z,10.80
2018-01-10T00:56:23.115Z,11.50
2018-01-10T00:58:51.379Z,8.53
2018-01-10T01:01:20.397Z,8.10
2018-01-10T01:03:48.796Z,11.97
2018-01-10T01:06:17.055Z,12.60
2018-01-10T01:08:45.328Z,11.50
2018-01-10T01:11:13.585Z,9.50
2018-01-10T01:13:41.862Z,6.67
2018-01-10T01:16:10.103Z,8.77
2018-01-10T01:18:38.373Z,7.20
2018-01-10T01:21:06.641Z,10.93
2018-01-10T01:23:34.923Z,9.03
2018-01-10T01:26:03.179Z,9.33
2018-01-10T01:28:32.217Z,9.30
2018-01-10T01:31:00.478Z,7.70
2018-01-10T01:33:29.606Z,7.57
2018-01-10T01:35:58.601Z,10.70
2018-01-10T01:38:26.870Z,12.30
2018-01-10T01:40:55.902Z,11.23
2018-01-10T01:43:24.937Z,8.27
2018-01-10T01:45:53.186Z,11.43
2018-01-10T01:48:22.228Z,10.70
2018-01-10T01:50:51.332Z,10.47
2018-01-10T01:53:19.612Z,9.70
2018-01-10T01:55:47.876Z,12.93
2018-01-10T01:58:16.903Z,10.30
2018-01-10T02:00:45.173Z,12.73
2018-01-10T02:03:14.256Z,10.20
2018-01-10T02:05:42.535Z,10.97
2018-01-10T02:08:10.787Z,12.43
2018-01-10T02:10:39.818Z,9.00
2018-01-10T02:13:08.094Z,11.57
2018-01-10T02:15:36.368Z,8.63
2018-01-10T02:18:05.428Z,10.63
2018-01-10T02:20:33.721Z,12.27
2018-01-10T02:23:01.997Z,13.20
2018-01-10T02:25:30.294Z,12.53
2018-01-10T02:28:01.500Z,9.43
2018-01-10T02:30:29.772Z,11.47
2018-01-10T02:32:58.033Z,11.43
2018-01-10T02:35:26.307Z,9.87
2018-01-10T02:37:54.554Z,10.10
2018-01-10T02:40:22.828Z,11.97
2018-01-10T02:42:51.089Z,9.60
2018-01-10T02:45:19.347Z,11.80
2018-01-10T02:47:47.603Z,11.40
2018-01-10T02:50:15.874Z,10.47
2018-01-10T02:52:44.911Z,9.77
2018-01-10T02:55:13.186Z,9.10
2018-01-10T02:57:41.459Z,8.97
2018-01-10T03:00:10.500Z,12.87
2018-01-10T03:02:38.759Z,7.87
2018-01-10T03:05:07.826Z,11.33
2018-01-10T03:07:36.084Z,9.57
2018-01-10T03:10:04.358Z,12.33
2018-01-10T03:12:32.616Z,14.07
2018-01-10T03:15:01.647Z,11.47
2018-01-10T03:17:29.907Z,8.67
2018-01-10T03:19:58.195Z,13.17
2018-01-10T03:22:26.460Z,9.27
2018-01-10T03:24:54.732Z,7.90
2018-01-10T03:27:22.998Z,11.07
2018-01-10T03:29:51.292Z,8.90
2018-01-10T03:32:19.544Z,8.17
2018-01-10T03:34:47.791Z,11.37
2018-01-10T03:37:16.056Z,12.57
2018-01-10T03:39:44.327Z,13.43
2018-01-10T03:42:13.397Z,8.73
2018-01-10T03:44:41.648Z,10.23
2018-01-10T03:47:09.930Z,9.93
2018-01-10T03:49:38.199Z,10.30
2018-01-10T03:52:06.481Z,7.73
2018-01-10T03:54:35.495Z,7.53
2018-01-10T03:57:04.520Z,9.67
2018-01-10T03:59:32.772Z,9.27
2018-01-10T04:02:01.042Z,9.23
2018-01-10T04:04:29.295Z,7.60
2018-01-10T04:06:57.570Z,12.43
2018-01-10T04:09:25.816Z,12.03
2018-01-10T04:11:54.097Z,9.90
2018-01-10T04:14:22.342Z,7.10
2018-01-10T04:16:50.602Z,10.37
2018-01-10T04:19:19.611Z,9.43
2018-01-10T04:21:48.643Z,8.40
2018-01-10T04:24:16.902Z,9.63
2018-01-10T04:26:45.943Z,6.70
2018-01-10T04:29:14.214Z,10.40
2018-01-10T04:31:43.238Z,9.30
2018-01-10T04:34:11.494Z,8.47
2018-01-10T04:36:40.523Z,9.77
2018-01-10T04:39:08.776Z,7.83
2018-01-10T04:41:37.056Z,9.77
2018-01-10T04:44:05.300Z,9.67
2018-01-10T04:46:33.576Z,7.50
2018-01-10T04:49:01.854Z,10.83
2018-01-10T04:51:30.877Z,9.00
2018-01-10T04:53:59.172Z,7.87
2018-01-10T04:56:28.171Z,8.40
2018-01-10T04:58:56.455Z,7.40
2018-01-10T05:01:24.730Z,6.37
2018-01-10T05:03:53.773Z,6.63
2018-01-10T05:06:22.027Z,8.30
2018-01-10T05:08:51.056Z,6.80
2018-01-10T05:11:19.303Z,7.77
2018-01-10T05:13:47.576Z,9.43
2018-01-10T05:16:15.824Z,6.67
2018-01-10T05:18:44.099Z,7.73
2018-01-10T05:21:13.115Z,8.10
2018-01-10T05:23:42.143Z,9.57
2018-01-10T05:26:10.407Z,7.27
2018-01-10T05:28:39.450Z,9.17
2018-01-10T05:31:08.318Z,8.27
2018-01-10T05:33:36.722Z,8.67
2018-01-10T05:36:04.986Z,8.90
2018-01-10T05:38:34.051Z,5.83
2018-01-10T05:41:02.303Z,6.10
2018-01-10T05:43:30.553Z,7.20
2018-01-10T05:45:59.592Z,4.53
2018-01-10T05:48:27.856Z,4.00
2018-01-10T05:50:56.142Z,4.57
2018-01-10T05:53:24.424Z,7.07
2018-01-10T05:55:52.665Z,4.63
2018-01-10T05:58:20.987Z,4.23
2018-01-10T06:00:49.287Z,5.20
2018-01-10T06:03:17.580Z,5.17
2018-01-10T06:05:45.880Z,4.93
2018-01-10T06:08:14.247Z,4.83
2018-01-10T06:10:42.504Z,9.00
2018-01-10T06:13:10.781Z,9.20
2018-01-10T06:15:39.056Z,6.27
2018-01-10T06:18:07.350Z,6.27
2018-01-10T06:20:36.356Z,7.03
2018-01-10T06:23:05.351Z,5.73
2018-01-10T06:25:34.444Z,7.73
2018-01-10T06:28:02.653Z,5.67
2018-01-10T06:30:31.692Z,6.30
2018-01-10T06:32:59.940Z,7.27
2018-01-10T06:35:28.986Z,6.17
2018-01-10T06:37:57.237Z,5.00
2018-01-10T06:40:26.263Z,6.23
2018-01-10T06:42:54.528Z,7.50
2018-01-10T06:45:22.795Z,6.20
2018-01-10T06:47:51.084Z,7.43
2018-01-10T06:50:19.425Z,6.47
2018-01-10T06:52:47.664Z,9.00
2018-01-10T06:55:16.004Z,9.77
2018-01-10T06:57:44.306Z,7.67
2018-01-10T07:00:12.584Z,6.70
2018-01-10T07:02:40.856Z,9.17
2018-01-10T07:05:09.929Z,8.37
2018-01-10T07:07:38.957Z,8.27
2018-01-10T07:10:08.002Z,6.20
2018-01-10T07:12:37.015Z,8.23
2018-01-10T07:15:05.309Z,5.70
2018-01-10T07:17:33.565Z,8.73
2018-01-10T07:20:02.601Z,8.53
2018-01-10T07:22:31.760Z,10.80
2018-01-10T07:25:00.053Z,11.23
2018-01-10T07:27:28.328Z,8.23
2018-01-10T07:29:56.639Z,12.00
2018-01-10T07:32:25.654Z,7.60
2018-01-10T07:34:54.691Z,11.13
2018-01-10T07:37:22.954Z,12.63
2018-01-10T07:39:51.977Z,9.10
2018-01-10T07:42:20.235Z,7.27
2018-01-10T07:44:48.514Z,6.97
2018-01-10T07:47:16.758Z,8.50
2018-01-10T07:49:45.006Z,7.10
2018-01-10T07:52:14.042Z,5.87
2018-01-10T07:54:42.305Z,6.60
2018-01-10T07:57:11.340Z,6.43
2018-01-10T07:59:39.593Z,8.67
2018-01-10T08:02:08.626Z,7.57
2018-01-10T08:04:36.887Z,8.43
2018-01-10T08:07:05.152Z,6.70
2018-01-10T08:09:33.404Z,6.60
2018-01-10T08:12:02.475Z,6.27
2018-01-10T08:14:31.491Z,5.47
2018-01-10T08:17:00.528Z,6.83
2018-01-10T08:19:28.784Z,7.40
2018-01-10T08:21:57.852Z,7.33
2018-01-10T08:24:26.124Z,5.30
2018-01-10T08:26:54.403Z,5.87
2018-01-10T08:29:22.671Z,6.73
2018-01-10T08:31:51.722Z,9.07
2018-01-10T08:34:19.964Z,6.97
2018-01-10T08:36:48.996Z,7.80
2018-01-10T08:39:17.250Z,7.30
2018-01-10T08:41:45.528Z,5.87
2018-01-10T08:44:13.841Z,8.20
2018-01-10T08:46:42.877Z,7.03
2018-01-10T08:49:11.131Z,6.67
2018-01-10T08:51:40.183Z,8.37
2018-01-10T08:54:08.436Z,7.77
2018-01-10T08:56:36.710Z,7.70
2018-01-10T08:59:05.734Z,9.80
2018-01-10T09:01:34.027Z,7.50
2018-01-10T09:04:02.280Z,9.27
2018-01-10T09:06:30.560Z,7.80
2018-01-10T09:08:58.805Z,5.47
2018-01-10T09:11:27.092Z,6.77
2018-01-10T09:13:55.348Z,7.83
2018-01-10T09:16:24.395Z,9.77
2018-01-10T09:18:52.676Z,5.97
2018-01-10T09:21:20.947Z,5.00
2018-01-10T09:23:49.966Z,7.70
2018-01-10T09:26:19.022Z,5.47
2018-01-10T09:28:47.284Z,5.60
2018-01-10T09:31:15.552Z,9.57
2018-01-10T09:33:43.800Z,6.50
2018-01-10T09:36:12.076Z,5.83
2018-01-10T09:38:40.338Z,6.83
2018-01-10T09:41:09.120Z,9.50
2018-01-10T09:43:37.397Z,6.63
2018-01-10T09:46:06.418Z,5.80
2018-01-10T09:48:34.675Z,6.60
2018-01-10T09:51:03.871Z,5.33
2018-01-10T09:53:32.146Z,7.40
2018-01-10T09:56:00.403Z,7.43
2018-01-10T09:58:28.691Z,6.90
2018-01-10T10:00:56.946Z,7.53
2018-01-10T10:03:25.971Z,8.43
2018-01-10T10:05:54.241Z,7.03
2018-01-10T10:08:22.512Z,6.50
2018-01-10T10:10:50.782Z,7.80
2018-01-10T10:13:19.040Z,7.67
2018-01-10T10:15:47.340Z,7.53
2018-01-10T10:18:15.605Z,8.23
2018-01-10T10:20:44.611Z,8.63
2018-01-10T10:23:12.890Z,8.27
2018-01-10T10:25:41.896Z,7.37
2018-01-10T10:28:10.932Z,5.17
2018-01-10T10:30:39.196Z,12.60
2018-01-10T10:33:07.475Z,5.87
2018-01-10T10:35:36.519Z,5.07
2018-01-10T10:38:04.791Z,6.50
2018-01-10T10:40:33.039Z,5.30
2018-01-10T10:43:02.436Z,6.40
2018-01-10T10:45:30.708Z,7.30
2018-01-10T10:47:59.009Z,5.40
2018-01-10T10:50:27.260Z,5.57
2018-01-10T10:52:55.642Z,6.20
2018-01-10T10:55:24.666Z,4.70
2018-01-10T10:57:52.928Z,5.80
2018-01-10T11:00:21.960Z,7.67
2018-01-10T11:02:50.216Z,9.93
2018-01-10T11:05:18.496Z,6.43
2018-01-10T11:07:46.754Z,2.47
2018-01-10T11:10:15.804Z,4.17
2018-01-10T11:12:44.840Z,2.43
2018-01-10T11:15:13.123Z,3.80
2018-01-10T11:17:42.175Z,3.10
2018-01-10T11:20:10.417Z,2.07
2018-01-10T11:22:38.698Z,2.47
2018-01-10T11:25:07.820Z,2.33
2018-01-10T11:27:36.109Z,3.03
2018-01-10T11:30:04.407Z,3.67
2018-01-10T11:32:33.719Z,1.30
2018-01-10T11:35:01.989Z,3.60
2018-01-10T11:37:31.021Z,1.57
2018-01-10T11:39:59.298Z,1.83
2018-01-10T11:42:27.576Z,3.10
2018-01-10T11:44:56.629Z,1.90
2018-01-10T11:47:24.885Z,2.83
2018-01-10T11:49:53.170Z,3.17
2018-01-10T11:52:22.196Z,1.93
2018-01-10T11:54:50.500Z,1.93
2018-01-10T11:57:18.777Z,1.43
2018-01-10T11:59:47.069Z,1.83
2018-01-10T12:02:15.337Z,1.33
2018-01-10T12:04:43.631Z,2.10
2018-01-10T12:07:11.908Z,4.00
2018-01-10T12:09:40.200Z,2.13
2018-01-10T12:12:09.235Z,2.23
2018-01-10T12:14:37.606Z,2.20
2018-01-10T12:17:05.876Z,1.43
2018-01-10T12:19:34.919Z,6.30
2018-01-10T12:22:03.198Z,3.07
2018-01-10T12:24:31.467Z,2.37
2018-01-10T12:27:00.528Z,1.67
2018-01-10T12:29:28.830Z,2.27
2018-01-10T12:31:57.879Z,2.33
2018-01-10T12:34:26.152Z,2.83
2018-01-10T12:36:55.223Z,2.37
2018-01-10T12:39:23.496Z,3.40
2018-01-10T12:41:51.774Z,1.40
2018-01-10T12:44:20.056Z,2.23
2018-01-10T12:46:48.333Z,1.17
2018-01-10T12:49:16.587Z,1.50
2018-01-10T12:51:44.863Z,3.03
2018-01-10T12:54:13.126Z,2.50
2018-01-10T12:56:41.436Z,1.73
2018-01-10T12:59:09.710Z,3.20
2018-01-10T13:01:38.008Z,2.10
2018-01-10T13:04:06.273Z,3.37
2018-01-10T13:06:34.547Z,4.73
2018-01-10T13:09:02.831Z,1.93
2018-01-10T13:11:31.128Z,2.53
2018-01-10T13:13:59.447Z,2.27
2018-01-10T13:16:27.719Z,2.13
2018-01-10T13:18:56.014Z,2.03
2018-01-10T13:21:24.300Z,5.63
2018-01-10T13:23:53.348Z,2.50
2018-01-10T13:26:21.664Z,4.30
2018-01-10T13:28:50.693Z,2.63
2018-01-10T13:31:18.982Z,3.27
2018-01-10T13:33:47.244Z,5.03
2018-01-10T13:36:16.295Z,2.93
2018-01-10T13:38:44.548Z,4.10
2018-01-10T13:41:13.615Z,3.30
2018-01-10T13:43:41.908Z,3.57
2018-01-10T13:46:10.176Z,1.90
2018-01-10T13:48:38.468Z,2.70
2018-01-10T13:51:07.253Z,5.13
2018-01-10T13:53:35.532Z,5.70
2018-01-10T13:56:03.787Z,4.70
2018-01-10T13:58:32.834Z,5.13
2018-01-10T14:01:01.126Z,3.90
2018-01-10T14:03:29.411Z,5.63
2018-01-10T14:05:57.684Z,5.20
2018-01-10T14:08:26.728Z,8.13
2018-01-10T14:10:54.977Z,8.03
2018-01-10T14:13:24.017Z,6.97
2018-01-10T14:15:52.303Z,6.80
2018-01-10T14:18:20.638Z,7.97
2018-01-10T14:20:48.869Z,8.43
2018-01-10T14:23:17.148Z,6.00
2018-01-10T14:25:46.161Z,7.83
2018-01-10T14:28:14.439Z,12.47
2018-01-10T14:30:43.469Z,6.50
2018-01-10T14:33:11.752Z,10.70
2018-01-10T14:35:40.004Z,10.67
2018-01-10T14:38:08.280Z,6.67
2018-01-10T14:40:36.531Z,11.67
2018-01-10T14:43:04.808Z,10.37
2018-01-10T14:45:33.075Z,6.67
2018-01-10T14:48:02.159Z,10.07
2018-01-10T14:50:30.414Z,7.93
2018-01-10T14:52:58.723Z,10.03
2018-01-10T14:55:26.987Z,9.97
2018-01-10T14:57:55.240Z,7.77
2018-01-10T15:00:24.258Z,7.47
2018-01-10T15:02:52.534Z,6.87
2018-01-10T15:05:21.576Z,7.50
2018-01-10T15:07:49.885Z,10.13
2018-01-10T15:10:18.146Z,9.83
2018-01-10T15:12:46.437Z,9.40
2018-01-10T15:15:14.719Z,9.07
2018-01-10T15:17:43.750Z,12.23
2018-01-10T15:20:12.040Z,7.27
2018-01-10T15:22:40.313Z,6.10
2018-01-10T15:25:08.650Z,4.90
2018-01-10T15:27:36.912Z,5.43
2018-01-10T15:30:05.201Z,8.33
2018-01-10T15:32:33.473Z,4.53
2018-01-10T15:35:01.751Z,8.00
2018-01-10T15:37:30.029Z,6.40
2018-01-10T15:39:59.069Z,3.77
2018-01-10T15:42:27.348Z,8.93
2018-01-10T15:44:55.616Z,3.27
2018-01-10T15:47:24.676Z,4.60
2018-01-10T15:49:52.944Z,7.03
2018-01-10T15:52:21.213Z,5.00
2018-01-10T15:54:49.479Z,6.43
2018-01-10T15:57:17.723Z,6.97
2018-01-10T15:59:46.013Z,7.23
2018-01-10T16:02:14.261Z,7.83
2018-01-10T16:04:43.296Z,6.27
2018-01-10T16:07:11.586Z,4.77
2018-01-10T16:09:39.894Z,4.37
2018-01-10T16:12:08.191Z,5.37
2018-01-10T16:14:37.185Z,4.73
2018-01-10T16:17:05.463Z,7.07
2018-01-10T16:19:33.730Z,5.13
2018-01-10T16:22:02.064Z,6.77
2018-01-10T16:24:30.316Z,6.07
2018-01-10T16:26:58.560Z,6.97
2018-01-10T16:29:26.821Z,7.67
2018-01-10T16:31:55.073Z,6.63
2018-01-10T16:34:23.314Z,7.33
2018-01-10T16:36:51.596Z,4.37
2018-01-10T16:39:19.845Z,7.03
2018-01-10T16:41:48.108Z,7.73
2018-01-10T16:44:17.132Z,5.43
2018-01-10T16:46:45.395Z,7.50
2018-01-10T16:49:13.667Z,6.37
2018-01-10T16:51:42.006Z,5.03
2018-01-10T16:54:10.267Z,4.93
2018-01-10T16:56:38.590Z,6.33
2018-01-10T16:59:06.861Z,6.83
2018-01-10T17:01:35.892Z,4.70
2018-01-10T17:04:04.201Z,7.37
2018-01-10T17:06:33.280Z,4.97
2018-01-10T17:09:01.556Z,5.93
2018-01-10T17:11:30.738Z,5.03
2018-01-10T17:13:59.030Z,10.03
2018-01-10T17:16:27.363Z,10.70
2018-01-10T17:18:55.627Z,10.20
2018-01-10T17:21:24.681Z,8.23
2018-01-10T17:23:52.941Z,6.50
2018-01-10T17:26:21.976Z,6.80
2018-01-10T17:28:50.260Z,12.53
2018-01-10T17:31:18.599Z,7.23
2018-01-10T17:33:46.860Z,6.63
2018-01-10T17:36:15.149Z,7.03
2018-01-10T17:38:43.423Z,7.77
2018-01-10T17:41:11.712Z,7.10
2018-01-10T17:43:39.980Z,8.17
2018-01-10T17:46:08.274Z,8.73
2018-01-10T17:48:36.583Z,6.50
2018-01-10T17:51:04.877Z,7.33
2018-01-10T17:53:33.896Z,4.80
2018-01-10T17:56:02.204Z,5.53
2018-01-10T17:58:31.284Z,5.73
2018-01-10T18:00:59.605Z,6.10
2018-01-10T18:03:28.064Z,5.97
2018-01-10T18:05:56.346Z,6.80
2018-01-10T18:08:24.627Z,10.67
2018-01-10T18:10:52.921Z,8.60
2018-01-10T18:13:21.211Z,6.47
2018-01-10T18:15:49.491Z,7.37
2018-01-10T18:18:17.781Z,7.70
2018-01-10T18:20:46.805Z,7.07
2018-01-10T18:23:15.100Z,6.13
2018-01-10T18:25:43.381Z,5.47
2018-01-10T18:28:11.666Z,6.57
2018-01-10T18:30:39.925Z,4.47
2018-01-10T18:33:08.975Z,7.83
2018-01-10T18:35:37.236Z,11.17
2018-01-10T18:38:05.544Z,5.73
2018-01-10T18:40:33.820Z,5.40
2018-01-10T18:43:02.119Z,7.87
2018-01-10T18:45:30.402Z,6.50
2018-01-10T18:47:58.691Z,5.80
2018-01-10T18:50:26.959Z,6.17
2018-01-10T18:52:55.229Z,3.47
2018-01-10T18:55:23.529Z,4.00
2018-01-10T18:57:51.811Z,4.90
2018-01-10T19:00:20.103Z,6.37
2018-01-10T19:02:48.385Z,4.53
2018-01-10T19:05:16.659Z,5.23
2018-01-10T19:07:44.935Z,4.93
2018-01-10T19:10:13.270Z,3.57
2018-01-10T19:12:42.311Z,2.97
2018-01-10T19:15:10.693Z,4.50
2018-01-10T19:17:38.995Z,2.97
2018-01-10T19:20:07.286Z,2.53
2018-01-10T19:22:35.587Z,5.23
2018-01-10T19:25:03.958Z,5.00
2018-01-10T19:27:32.264Z,3.27
2018-01-10T19:30:00.538Z,2.90
2018-01-10T19:32:28.833Z,2.33
2018-01-10T19:34:57.160Z,2.43
2018-01-10T19:37:25.422Z,2.93
2018-01-10T19:39:54.477Z,1.63
2018-01-10T19:42:23.509Z,1.33
2018-01-10T19:44:51.793Z,1.50
2018-01-10T19:47:20.048Z,1.53
2018-01-10T19:49:48.368Z,2.33
2018-01-10T19:52:17.416Z,1.20
2018-01-10T19:54:46.521Z,2.60
2018-01-10T19:57:14.765Z,2.80
2018-01-10T19:59:43.820Z,2.13
2018-01-10T20:02:12.069Z,3.13
2018-01-10T20:04:40.374Z,1.73
2018-01-10T20:07:08.634Z,1.30
2018-01-10T20:09:37.689Z,2.63
2018-01-10T20:12:05.942Z,1.20
2018-01-10T20:14:34.971Z,1.60
2018-01-10T20:17:03.268Z,1.73
2018-01-10T20:19:31.550Z,3.50
2018-01-10T20:21:59.817Z,4.27
2018-01-10T20:24:28.086Z,4.90
2018-01-10T20:26:56.335Z,4.43
2018-01-10T20:29:24.602Z,4.20
2018-01-10T20:31:52.860Z,5.73
2018-01-10T20:34:21.880Z,3.23
2018-01-10T20:36:50.140Z,4.03
2018-01-10T20:39:18.491Z,4.10
2018-01-10T20:41:46.756Z,2.60
2018-01-10T20:44:15.087Z,2.20
2018-01-10T20:46:43.329Z,3.73
2018-01-10T20:49:11.674Z,4.43
2018-01-10T20:51:39.955Z,5.53
2018-01-10T20:54:08.228Z,2.90
2018-01-10T20:56:36.484Z,3.23
2018-01-10T20:59:04.774Z,5.67
2018-01-10T21:01:33.071Z,4.50
2018-01-10T21:04:01.376Z,4.10
2018-01-10T21:06:29.648Z,7.47
2018-01-10T21:08:57.928Z,5.83
2018-01-10T21:11:26.196Z,3.43
2018-01-10T21:13:55.279Z,4.10
2018-01-10T21:16:23.565Z,5.40
2018-01-10T21:18:51.808Z,7.17
2018-01-10T21:21:20.087Z,4.80
2018-01-10T21:23:49.123Z,5.07
2018-01-10T21:26:17.420Z,7.10
2018-01-10T21:28:45.660Z,4.37
2018-01-10T21:31:14.709Z,5.07
2018-01-10T21:33:43.031Z,4.13
2018-01-10T21:36:11.307Z,4.43
2018-01-10T21:38:39.560Z,6.57
2018-01-10T21:41:08.063Z,4.03
2018-01-10T21:43:36.327Z,5.13
2018-01-10T21:46:05.357Z,4.67
2018-01-10T21:48:33.657Z,4.53
2018-01-10T21:51:01.960Z,3.80
2018-01-10T21:53:30.188Z,5.73
2018-01-10T21:55:58.459Z,4.10
2018-01-10T21:58:26.735Z,6.10
2018-01-10T22:00:55.000Z,3.27
2018-01-10T22:03:23.273Z,3.70
2018-01-10T22:05:51.568Z,4.33
2018-01-10T22:08:19.833Z,4.97
2018-01-10T22:10:48.857Z,6.20
2018-01-10T22:13:17.100Z,5.20
2018-01-10T22:15:45.379Z,7.20
2018-01-10T22:18:13.641Z,4.30
2018-01-10T22:20:41.896Z,4.53
2018-01-10T22:23:11.281Z,5.97
2018-01-10T22:25:39.549Z,6.20
2018-01-10T22:28:08.125Z,4.43
2018-01-10T22:30:36.398Z,6.37
2018-01-10T22:33:04.654Z,4.57
2018-01-10T22:35:32.907Z,4.30
2018-01-10T22:38:01.163Z,6.03
2018-01-10T22:40:30.191Z,7.57
2018-01-10T22:42:58.450Z,8.13
2018-01-10T22:45:27.492Z,6.00
2018-01-10T22:47:55.744Z,3.60
2018-01-10T22:50:24.786Z,5.07
2018-01-10T22:52:53.034Z,5.17
2018-01-10T22:55:22.059Z,9.27
2018-01-10T22:57:50.415Z,10.90
2018-01-10T23:00:25.467Z,8.40
2018-01-10T23:02:53.740Z,5.63
2018-01-10T23:05:22.003Z,11.17
2018-01-10T23:07:50.275Z,5.90
2018-01-10T23:10:18.537Z,6.33
2018-01-10T23:12:47.561Z,3.97
2018-01-10T23:15:15.838Z,5.33
2018-01-10T23:17:44.889Z,6.80
2018-01-10T23:20:13.171Z,4.93
2018-01-10T23:22:41.452Z,5.27
2018-01-10T23:25:09.708Z,4.67
2018-01-10T23:27:38.776Z,5.93
2018-01-10T23:30:07.037Z,5.57
2018-01-10T23:32:35.312Z,5.40
2018-01-10T23:35:03.561Z,2.93
2018-01-10T23:37:31.858Z,3.03
2018-01-10T23:40:00.114Z,4.90
2018-01-10T23:42:28.383Z,5.03
2018-01-10T23:44:56.659Z,5.57
2018-01-10T23:47:24.941Z,3.77
2018-01-10T23:49:53.204Z,2.57
2018-01-10T23:52:21.467Z,3.63
2018-01-10T23:54:49.715Z,2.40
2018-01-10T23:57:17.979Z,2.70
2018-01-10T23:59:46.989Z,5.80
